Skip Navigation Links Skip Navigation Links

Current Weather

Windsor Apt, Windsor, Ont.

For information only: do not use for flight planning or navigation.
Latest weather
Observation time Saturday, October 19, 2019 6:00 AM EDT
Local time Saturday, October 19, 2019 6:21 AM EDT
Flight conditions Visual Meteorological Conditions
Winds
Wind direction East-Northeast (60°)
Wind speed 3 mph
Visibility 9 mi.
Sky condition
Ceiling unlimited
Sky clear
Temperature 37°F
Dewpoint 36°F
Altimeter 30.02 in.Hg
Derived measurements
Relative humidity 93%
Wind chill 35°F
Density altitude -843 ft.
Sea-level pressure 30.03 in.Hg
Remarks
Fully automated report.
METAR CYQG 191000Z AUTO 06003KT 9SM CLR 03/02 A3002 RMK SLP170

Settings

Location code

InnerDrive.Weather 4.0.6770.0 Release CLR 4.0.30319.42000
Copyright ©2018 Inner Drive Technology. All rights reserved. Portions Copyright ©1986-2018 David Braverman.

Find weather

Site navigation


Skip Navigation Links

Place info

Page info

PayPal - The safer, easier way to pay online!

Return home.

Copyright ©2019 Inner Drive Technology. Purveyors of fine, hand-crafted computer software. Page printed 2019-10-19T10:21:40 UTC.